Archie Moore (175, 176) Station Data

Red Flag Warning: No
Fire Weather Zone: 250
SDGE Region: Ramona
Lat/Lon: 33.04/-116.958

Observations

Time Wind Speed/Gust Temp(F) RH Fuel Moist Fuel Temp(F) Dewpt(F) Tmax(F) Tmin(F) Accum Precip 10-min Precip SL Press(mb)
4/29 11:50pm 163 0 G 2 61° 27% - - 27° 82° 60.1° - - 1016.0
4/29 11:40pm 163 0 G 1 61° 28% - - 27° 82° 60.1° - - 1016.0
4/29 11:30pm 219 0 G 1 61° 28% - - 27° 82° 60.1° - - 1016.0
4/29 11:20pm 102 1 G 2 61° 27% - - 27° 82° 60.1° - - 1016.0
4/29 11:10pm 56 0 G 2 61° 29% - - 28° 82° 60.1° - - 1016.0
4/29 11:00pm 207 0 G 2 60° 29% - - 28° 82° 60.1° - - 1016.0
4/29 10:50pm 133 1 G 3 60° 29% - - 28° 82° 60.1° - - 1016.0
4/29 10:40pm 243 0 G 1 61° 28% - - 28° 82° 60.2° - - 1016.0
4/29 10:30pm 98 1 G 2 61° 28% - - 27° 82° 60.7° - - 1016.0
4/29 10:20pm 104 1 G 4 61° 24% - - 24° 82° 60.8° - - 1016.0
4/29 10:10pm 110 3 G 3 63° 22% - - 23° 82° 60.8° - - 1016.0
4/29 10:00pm 130 0 G 2 64° 20% - - 22° 82° 60.8° - - 1016.0
4/29 9:50pm 234 1 G 2 64° 20% - - 23° 82° 60.8° - - 1016.0
4/29 9:40pm 252 1 G 2 65° 20% - - 23° 82° 60.8° - - 1016.0
4/29 9:30pm 93 0 G 1 64° 20% - - 23° 82° 60.8° - - 1016.0
4/29 9:20pm 109 1 G 3 65° 19% - - 22° 82° 60.8° - - 1015.0
4/29 9:10pm 303 3 G 4 66° 18% - - 22° 82° 60.8° - - 1015.0
4/29 9:00pm 288 3 G 6 66° 19% - - 22° 82° 60.8° - - 1015.0
4/29 8:50pm 272 4 G 6 66° 19% - - 22° 82° 60.8° - - 1015.0
4/29 8:40pm 267 6 G 8 66° 19% - - 23° 82° 60.8° - - 1015.0
4/29 8:30pm 263 6 G 8 67° 20% - - 24° 82° 60.8° - - 1014.0
4/29 8:20pm 281 7 G 10 68° 19% - - 24° 82° 60.8° - - 1014.0
4/29 8:10pm 279 6 G 8 68° 20% - - 26° 82° 60.8° - - 1014.0
4/29 8:00pm 275 6 G 8 68° 20% - - 25° 82° 60.8° - - 1014.0
4/29 7:50pm 264 6 G 8 68° 19% - - 25° 82° 60.8° - - 1013.0
4/29 7:40pm 270 6 G 9 69° 19% - - 25° 82° 60.8° - - 1013.0
4/29 7:30pm 270 7 G 9 69° 19% - - 25° 82° 60.8° - - 1013.0
4/29 7:20pm 267 5 G 8 70° 18% - - 24° 82° 60.8° - - 1013.0
4/29 7:10pm 268 5 G 7 71° 17% - - 24° 82° 60.8° - - 1013.0
4/29 7:00pm 278 8 G 14 72° 16% - - 24° 82° 60.8° - - 1013.0
4/29 6:50pm 267 7 G 12 72° 17% - - 25° 82° 60.8° - - 1013.0
4/29 6:40pm 269 6 G 12 73° 16% - - 24° 82° 60.8° - - 1013.0
4/29 6:30pm 267 9 G 13 73° 15% - - 22° 82° 60.8° - - 1012.0
4/29 6:20pm 274 9 G 15 74° 14% - - 22° 82° 60.8° - - 1012.0
4/29 6:10pm 271 8 G 12 74° 15% - - 24° 82° 60.8° - - 1012.0
4/29 6:00pm 261 9 G 14 74° 15% - - 23° 82° 60.8° - - 1012.0
4/29 5:50pm 265 9 G 17 74° 15% - - 24° 82° 60.8° - - 1012.0
4/29 5:40pm 256 12 G 16 75° 15% - - 25° 82° 60.8° - - 1011.0
4/29 5:30pm 265 10 G 15 75° 16% - - 25° 82° 60.8° - - 1011.0
4/29 5:20pm 263 11 G 16 75° 15% - - 24° 82° 60.8° - - 1011.0
4/29 5:10pm 269 11 G 17 76° 14% - - 23° 82° 60.8° - - 1011.0
4/29 5:00pm 266 11 G 16 76° 14% - - 23° 82° 60.8° - - 1011.0
4/29 4:50pm 264 10 G 15 76° 12% - - 21° 82° 60.8° - - 1011.0
4/29 4:40pm 262 12 G 17 76° 11% - - 18° 82° 60.8° - - 1011.0
4/29 4:30pm 281 11 G 18 77° 11% - - 18° 82° 60.8° - - 1011.0
4/29 4:20pm 272 12 G 18 77° 11% - - 19° 82° 60.8° - - 1011.0
4/29 4:10pm 271 12 G 18 77° 12% - - 20° 82° 60.8° - - 1011.0
4/29 4:00pm 265 13 G 17 77° 12% - - 21° 82° 60.8° - - 1011.0
4/29 3:50pm 267 11 G 15 78° 12% - - 22° 82° 60.8° - - 1011.0
4/29 3:40pm 249 10 G 17 79° 12% - - 22° 82° 60.8° - - 1011.0
4/29 3:30pm 253 10 G 17 78° 12% - - 22° 82° 60.8° - - 1011.0
4/29 3:20pm 266 12 G 18 77° 12% - - 22° 82° 60.8° - - 1011.0
4/29 3:10pm 273 12 G 17 78° 12% - - 22° 82° 60.8° - - 1011.0
4/29 3:00pm 257 10 G 16 78° 12% - - 22° 82° 60.8° - - 1011.0
4/29 2:50pm 268 10 G 17 77° 13% - - 22° 82° 60.8° - - 1011.0
4/29 2:40pm 269 14 G 18 77° 13% - - 21° 82° 60.8° - - 1011.0
4/29 2:30pm 268 11 G 19 78° 13% - - 23° 82° 60.8° - - 1011.0
4/29 2:20pm 257 10 G 16 78° 13% - - 23° 82° 60.8° - - 1011.0
4/29 2:10pm 231 10 G 16 79° 12% - - 22° 82° 60.8° - - 1011.0
4/29 2:00pm 190 5 G 11 81° 7% - - 12° 82° 60.8° - - 1011.0
4/29 1:50pm 135 7 G 14 81° 8% - - 13° 81.8° 60.8° - - 1011.0
4/29 1:40pm 122 7 G 14 81° 8% - - 13° 81.7° 60.8° - - 1011.0
4/29 1:30pm 139 8 G 12 80° 7% - - 12° 81.7° 60.8° - - 1011.0
4/29 1:20pm 122 5 G 12 80° 7% - - 11° 80.6° 60.8° - - 1011.0
4/29 1:10pm 109 8 G 17 79° 7% - - 11° 80.5° 60.8° - - 1011.0
4/29 1:00pm 109 7 G 14 79° 7% - - 11° 80.5° 60.8° - - 1011.0
4/29 12:50pm 104 7 G 13 79° 7% - - 11° 79.9° 60.8° - - 1011.0
4/29 12:40pm 92 9 G 21 79° 8% - - 11° 79.9° 60.8° - - 1011.0
4/29 12:30pm 104 9 G 17 78° 7% - - 10° 79.3° 60.8° - - 1012.0
4/29 12:20pm 84 10 G 18 78° 7% - - 10° 79.3° 60.8° - - 1012.0
4/29 12:10pm 71 10 G 15 77° 7% - - 10° 78.7° 60.8° - - 1012.0
4/29 12:00pm 76 11 G 22 77° 8% - - 11° 78.7° 60.8° - - 1012.0
4/29 11:50am 80 11 G 18 77° 8% - - 11° 78.7° 60.8° - - 1012.0
4/29 11:40am 83 12 G 19 78° 8% - - 13° 78.7° 60.8° - - 1011.0
4/29 11:30am 69 10 G 18 77° 8% - - 11° 78.1° 60.8° - - 1011.0
4/29 11:20am 45 12 G 19 77° 7% - - 78.1° 60.8° - - 1011.0
4/29 11:10am 66 13 G 17 77° 7% - - 78.1° 60.8° - - 1011.0
4/29 11:00am 58 10 G 18 77° 8% - - 10° 78.1° 60.8° - - 1011.0
4/29 10:50am 76 9 G 15 76° 8% - - 10° 77.5° 60.8° - - 1011.0
4/29 10:40am 76 9 G 18 76° 8% - - 10° 76.9° 60.8° - - 1011.0
4/29 10:30am 68 11 G 18 75° 8% - - 11° 76.7° 60.8° - - 1011.0
4/29 10:20am 66 13 G 20 75° 8% - - 10° 75.9° 60.8° - - 1011.0
4/29 10:10am 74 10 G 16 75° 9% - - 11° 75.9° 60.8° - - 1011.0
4/29 10:00am 74 10 G 17 75° 9% - - 12° 75.9° 60.8° - - 1011.0
4/29 9:50am 77 10 G 15 75° 9% - - 12° 75.9° 60.8° - - 1011.0
4/29 9:40am 92 10 G 18 75° 10% - - 13° 75.9° 60.8° - - 1011.0
4/29 9:30am 82 8 G 18 74° 10% - - 13° 74.7° 60.8° - - 1011.0
4/29 9:20am 68 6 G 10 73° 10% - - 13° 73.1° 60.8° - - 1011.0
4/29 9:10am 97 5 G 12 72° 10% - - 14° 73° 60.8° - - 1011.0
4/29 9:00am 76 9 G 13 71° 10% - - 12° 71.6° 60.8° - - 1011.0
4/29 8:50am 75 11 G 16 70° 11% - - 13° 70.8° 60.8° - - 1011.0
4/29 8:40am 61 11 G 15 70° 11% - - 13° 70.3° 60.8° - - 1011.0
4/29 8:30am 63 13 G 19 70° 11% - - 13° 70.1° 60.8° - - 1011.0
4/29 8:20am 63 14 G 20 69° 11% - - 12° 69.4° 60.8° - - 1011.0
4/29 8:10am 68 11 G 15 69° 11% - - 13° 69.3° 60.8° - - 1011.0
4/29 8:00am 78 10 G 17 69° 11% - - 13° 69° 60.8° - - 1011.0
4/29 7:50am 69 11 G 18 68° 11% - - 12° 68.3° 60.8° - - 1011.0
4/29 7:40am 62 12 G 18 68° 11% - - 11° 68° 60.8° - - 1011.0
4/29 7:30am 65 10 G 15 67° 12% - - 13° 67.5° 60.8° - - 1011.0
4/29 7:20am 84 8 G 13 65° 14% - - 16° 66.3° 60.8° - - 1011.0
4/29 7:10am 82 6 G 9 65° 14% - - 15° 66.3° 60.8° - - 1011.0
4/29 7:00am 75 7 G 12 65° 13% - - 13° 66.3° 60.8° - - 1011.0
4/29 6:50am 84 5 G 10 62° 15% - - 14° 66.3° 60.8° - - 1011.0
4/29 6:40am 127 3 G 8 62° 15% - - 13° 66.3° 60.8° - - 1011.0
4/29 6:30am 74 5 G 8 62° 14% - - 12° 66.3° 60.8° - - 1010.0
4/29 6:20am 84 4 G 6 62° 13% - - 12° 66.3° 60.8° - - 1010.0
4/29 6:10am 63 5 G 7 63° 13% - - 11° 66.3° 60.8° - - 1010.0
4/29 6:00am 59 5 G 7 63° 13% - - 11° 66.3° 60.8° - - 1010.0
4/29 5:50am 63 5 G 8 64° 13% - - 11° 66.3° 60.8° - - 1010.0
4/29 5:40am 68 8 G 14 64° 12% - - 11° 66.3° 60.8° - - 1010.0
4/29 5:30am 69 7 G 13 64° 12% - - 11° 66.3° 60.8° - - 1010.0
4/29 5:20am 70 9 G 14 65° 12% - - 11° 66.3° 60.8° - - 1009.0
4/29 5:10am 67 13 G 22 66° 11% - - 11° 66.3° 60.8° - - 1009.0
4/29 5:00am 71 13 G 20 65° 12% - - 11° 66.3° 60.8° - - 1009.0
4/29 4:50am 68 9 G 14 64° 13% - - 12° 66.3° 60.8° - - 1009.0
4/29 4:40am 68 7 G 15 63° 14% - - 13° 66.3° 60.8° - - 1009.0
4/29 4:30am 71 5 G 8 62° 15% - - 13° 66.3° 60.8° - - 1009.0
4/29 4:20am 59 4 G 10 63° 14% - - 13° 66.3° 60.8° - - 1009.0
4/29 4:10am 147 1 G 7 64° 14% - - 13° 66.3° 60.8° - - 1009.0
4/29 4:00am 109 3 G 9 64° 14% - - 13° 66.3° 60.8° - - 1009.0
4/29 3:50am 133 3 G 6 64° 14% - - 13° 66.3° 60.8° - - 1009.0
4/29 3:40am 155 4 G 6 64° 14% - - 14° 66.3° 60.8° - - 1009.0
4/29 3:30am 165 4 G 7 63° 15% - - 15° 66.3° 60.8° - - 1009.0
4/29 3:20am 149 4 G 8 65° 14% - - 14° 66.3° 60.8° - - 1009.0
4/29 3:10am 257 2 G 4 63° 15% - - 16° 66.3° 60.8° - - 1009.0
4/29 3:00am 203 3 G 5 64° 15% - - 15° 66.3° 60.8° - - 1008.0
4/29 2:50am 230 3 G 7 65° 14% - - 15° 66.3° 60.8° - - 1008.0
4/29 2:40am 169 1 G 4 66° 13% - - 14° 66.3° 60.8° - - 1008.0
4/29 2:30am 100 3 G 8 65° 14% - - 15° 66.3° 60.8° - - 1008.0
4/29 2:20am 87 3 G 7 65° 15% - - 16° 66.3° 60.8° - - 1008.0
4/29 2:10am 28 5 G 11 65° 15% - - 16° 66.3° 60.8° - - 1008.0
4/29 2:00am 261 2 G 4 64° 18% - - 20° 64.8° 60.8° - - 1008.0
4/29 1:50am 216 1 G 5 64° 21% - - 23° 64.2° 60.8° - - 1008.0
4/29 1:40am 221 3 G 5 63° 23% - - 25° 63.9° 60.8° - - 1008.0
4/29 1:30am 123 1 G 6 63° 24% - - 25° 63.9° 60.8° - - 1008.0
4/29 1:20am 101 1 G 4 63° 26% - - 27° 62.9° 60.8° - - 1008.0
4/29 1:10am 70 5 G 10 62° 29% - - 29° 62.9° 60.8° - - 1008.0
4/29 1:00am 84 3 G 6 62° 35% - - 34° 62.9° 60.8° - - 1008.0
4/29 12:50am 102 1 G 4 61° 43% - - 39° 62.9° 60.8° - - 1008.0
4/29 12:40am 97 1 G 2 61° 46% - - 40° 62.9° 60.8° - - 1008.0
4/29 12:30am 103 2 G 4 62° 44% - - 40° 62.9° 61.4° - - 1008.0
4/29 12:20am 103 2 G 3 63° 43% - - 40° 62.9° 61.8° - - 1008.0
4/29 12:10am 269 1 G 2 62° 44% - - 40° 62.6° 61.8° - - 1008.0
4/29 12:00am 172 1 G 3 62° 43% - - 39° 76.5° 51.9° - - 1008.0
4/28 11:50pm 114 2 G 5 63° 42% - - 39° 76.5° 51.9° - - 1007.0
4/28 11:40pm 325 1 G 5 62° 43% - - 39° 76.5° 51.9° - - 1007.0
4/28 11:30pm 211 1 G 4 62° 43% - - 39° 76.5° 51.9° - - 1007.0
4/28 11:20pm 132 2 G 3 62° 42% - - 39° 76.5° 51.9° - - 1007.0
4/28 11:10pm 92 1 G 3 62° 43% - - 39° 76.5° 51.9° - - 1007.0
4/28 11:00pm 157 1 G 2 61° 45% - - 40° 76.5° 51.9° - - 1007.0
4/28 10:50pm 152 3 G 4 61° 46% - - 40° 76.5° 51.9° - - 1007.0
4/28 10:40pm 99 3 G 4 60° 49% - - 40° 76.5° 51.9° - - 1008.0
4/28 10:30pm 98 3 G 4 60° 48% - - 40° 76.5° 51.9° - - 1007.0
4/28 10:20pm 103 3 G 4 60° 48% - - 40° 76.5° 51.9° - - 1007.0
4/28 10:10pm 96 3 G 4 61° 46% - - 40° 76.5° 51.9° - - 1007.0
4/28 10:00pm 112 3 G 4 61° 45% - - 40° 76.5° 51.9° - - 1007.0
4/28 9:50pm 118 2 G 4 61° 46% - - 40° 76.5° 51.9° - - 1007.0
4/28 9:40pm 148 2 G 3 60° 48% - - 40° 76.5° 51.9° - - 1007.0
4/28 9:30pm 171 1 G 3 60° 48% - - 41° 76.5° 51.9° - - 1007.0
4/28 9:20pm 158 0 G 1 60° 48% - - 41° 76.5° 51.9° - - 1007.0
4/28 9:10pm 163 2 G 4 61° 48% - - 41° 76.5° 51.9° - - 1007.0
4/28 9:00pm 60 2 G 6 63° 43% - - 40° 76.5° 51.9° - - 1006.0
4/28 8:50pm 17 2 G 4 62° 45% - - 41° 76.5° 51.9° - - 1007.0
4/28 8:40pm 66 3 G 5 62° 46% - - 41° 76.5° 51.9° - - 1007.0
4/28 8:30pm 230 2 G 5 63° 46% - - 42° 76.5° 51.9° - - 1006.0
4/28 8:20pm 239 2 G 3 63° 45% - - 41° 76.5° 51.9° - - 1006.0
4/28 8:10pm 269 2 G 4 64° 43% - - 41° 76.5° 51.9° - - 1006.0
4/28 8:00pm 294 2 G 5 65° 41% - - 40° 76.5° 51.9° - - 1006.0
4/28 7:50pm 286 1 G 5 65° 40% - - 40° 76.5° 51.9° - - 1006.0
4/28 7:40pm 292 3 G 5 65° 38% - - 39° 76.5° 51.9° - - 1005.0
4/28 7:30pm 284 4 G 8 66° 37% - - 39° 76.5° 51.9° - - 1005.0
4/28 7:20pm 279 5 G 8 66° 36% - - 38° 76.5° 51.9° - - 1005.0
4/28 7:10pm 271 6 G 8 66° 34% - - 37° 76.5° 51.9° - - 1005.0
4/28 7:00pm 271 5 G 9 67° 34% - - 37° 76.5° 51.9° - - 1005.0
4/28 6:50pm 249 5 G 10 68° 33% - - 37° 76.5° 51.9° - - 1005.0
4/28 6:40pm 261 6 G 9 68° 32% - - 37° 76.5° 51.9° - - 1005.0
4/28 6:30pm 262 7 G 10 68° 32% - - 37° 76.5° 51.9° - - 1005.0
4/28 6:20pm 262 8 G 13 69° 33% - - 39° 76.5° 51.9° - - 1005.0
4/28 6:10pm 264 7 G 11 70° 33% - - 40° 76.5° 51.9° - - 1004.0
4/28 6:00pm 273 5 G 11 71° 33% - - 40° 76.5° 51.9° - - 1004.0